sensor_id;sensor_type;location;lat;lon;timestamp;pressure;altitude;pressure_sealevel;temperature;humidity
23176;BME280;19910;42.652;23.332;2023-12-04T00:02:13;95079.09;;;0.55;77.69
23176;BME280;19910;42.652;23.332;2023-12-04T00:04:39;95084.72;;;0.58;78.46
23176;BME280;19910;42.652;23.332;2023-12-04T00:07:06;95093.22;;;0.50;78.23
23176;BME280;19910;42.652;23.332;2023-12-04T00:09:34;95083.81;;;0.75;78.69
23176;BME280;19910;42.652;23.332;2023-12-04T00:12:01;95086.41;;;0.69;78.41
23176;BME280;19910;42.652;23.332;2023-12-04T00:14:28;95095.47;;;0.68;77.55
23176;BME280;19910;42.652;23.332;2023-12-04T00:16:54;95101.91;;;0.73;77.23
23176;BME280;19910;42.652;23.332;2023-12-04T00:19:21;95098.69;;;0.70;77.28
23176;BME280;19910;42.652;23.332;2023-12-04T00:21:48;95100.88;;;0.74;77.30
23176;BME280;19910;42.652;23.332;2023-12-04T00:24:15;95110.47;;;0.75;77.36
23176;BME280;19910;42.652;23.332;2023-12-04T00:26:43;95108.94;;;0.84;77.31
23176;BME280;19910;42.652;23.332;2023-12-04T00:29:10;95113.25;;;0.90;76.46
23176;BME280;19910;42.652;23.332;2023-12-04T00:31:36;95118.03;;;0.88;76.09
23176;BME280;19910;42.652;23.332;2023-12-04T00:34:03;95108.13;;;0.83;74.91
23176;BME280;19910;42.652;23.332;2023-12-04T00:36:30;95131.38;;;0.88;75.20
23176;BME280;19910;42.652;23.332;2023-12-04T00:38:57;95132.78;;;0.68;73.65
23176;BME280;19910;42.652;23.332;2023-12-04T00:41:24;95133.28;;;0.60;73.78
23176;BME280;19910;42.652;23.332;2023-12-04T00:43:52;95128.69;;;0.56;75.01
23176;BME280;19910;42.652;23.332;2023-12-04T00:46:19;95140.53;;;0.70;75.15
23176;BME280;19910;42.652;23.332;2023-12-04T00:48:45;95137.63;;;0.71;75.80
23176;BME280;19910;42.652;23.332;2023-12-04T00:51:12;95148.22;;;0.61;76.36
23176;BME280;19910;42.652;23.332;2023-12-04T00:53:39;95145.19;;;0.80;76.15
23176;BME280;19910;42.652;23.332;2023-12-04T00:56:07;95155.84;;;0.80;75.61
23176;BME280;19910;42.652;23.332;2023-12-04T00:58:34;95154.44;;;0.72;74.73
23176;BME280;19910;42.652;23.332;2023-12-04T01:01:02;95160.56;;;0.73;75.61
23176;BME280;19910;42.652;23.332;2023-12-04T01:03:29;95155.16;;;0.62;73.84
23176;BME280;19910;42.652;23.332;2023-12-04T01:05:58;95156.75;;;0.63;75.28
23176;BME280;19910;42.652;23.332;2023-12-04T01:08:25;95160.81;;;0.71;75.11
23176;BME280;19910;42.652;23.332;2023-12-04T01:10:52;95155.31;;;0.83;75.40
23176;BME280;19910;42.652;23.332;2023-12-04T01:13:19;95156.78;;;0.68;74.86
23176;BME280;19910;42.652;23.332;2023-12-04T01:15:45;95154.25;;;0.79;75.38
23176;BME280;19910;42.652;23.332;2023-12-04T01:18:15;95165.47;;;0.81;74.92
23176;BME280;19910;42.652;23.332;2023-12-04T01:20:42;95162.81;;;0.54;74.50
23176;BME280;19910;42.652;23.332;2023-12-04T01:23:09;95173.09;;;0.45;75.00
23176;BME280;19910;42.652;23.332;2023-12-04T01:25:35;95168.56;;;0.46;76.02
23176;BME280;19910;42.652;23.332;2023-12-04T01:28:02;95167.00;;;0.23;76.03
23176;BME280;19910;42.652;23.332;2023-12-04T01:30:29;95163.47;;;0.17;76.51
23176;BME280;19910;42.652;23.332;2023-12-04T01:32:56;95169.69;;;0.28;77.16
23176;BME280;19910;42.652;23.332;2023-12-04T01:35:24;95160.25;;;0.42;77.14
23176;BME280;19910;42.652;23.332;2023-12-04T01:37:51;95167.09;;;0.33;75.49
23176;BME280;19910;42.652;23.332;2023-12-04T01:40:18;95174.00;;;0.56;75.49
23176;BME280;19910;42.652;23.332;2023-12-04T01:42:44;95168.31;;;0.47;75.36
23176;BME280;19910;42.652;23.332;2023-12-04T01:45:10;95174.16;;;0.44;75.14
23176;BME280;19910;42.652;23.332;2023-12-04T01:47:37;95179.38;;;0.34;75.54
23176;BME280;19910;42.652;23.332;2023-12-04T01:50:05;95173.44;;;0.27;74.99
23176;BME280;19910;42.652;23.332;2023-12-04T01:52:35;95172.09;;;0.24;74.77
23176;BME280;19910;42.652;23.332;2023-12-04T01:55:04;95167.72;;;0.40;75.62
23176;BME280;19910;42.652;23.332;2023-12-04T01:57:32;95177.53;;;0.13;75.94
23176;BME280;19910;42.652;23.332;2023-12-04T01:59:59;95177.53;;;0.13;75.18
23176;BME280;19910;42.652;23.332;2023-12-04T02:02:27;95167.00;;;0.23;75.72
23176;BME280;19910;42.652;23.332;2023-12-04T02:04:54;95177.16;;;0.04;75.97
23176;BME280;19910;42.652;23.332;2023-12-04T02:07:22;95181.06;;;-0.04;76.24
23176;BME280;19910;42.652;23.332;2023-12-04T02:09:50;95181.44;;;0.05;76.89
23176;BME280;19910;42.652;23.332;2023-12-04T02:12:17;95186.63;;;0.17;77.42
23176;BME280;19910;42.652;23.332;2023-12-04T02:14:44;95189.09;;;0.02;76.78
23176;BME280;19910;42.652;23.332;2023-12-04T02:17:11;95200.72;;;0.12;76.58
23176;BME280;19910;42.652;23.332;2023-12-04T02:19:39;95196.53;;;0.21;76.49
23176;BME280;19910;42.652;23.332;2023-12-04T02:22:06;95205.66;;;0.04;76.06
23176;BME280;19910;42.652;23.332;2023-12-04T02:24:34;95198.34;;;0.16;75.86
23176;BME280;19910;42.652;23.332;2023-12-04T02:27:05;95207.63;;;-0.09;76.45
23176;BME280;19910;42.652;23.332;2023-12-04T02:29:39;95209.81;;;-0.06;76.81
23176;BME280;19910;42.652;23.332;2023-12-04T02:32:11;95208.03;;;0.00;76.73
23176;BME280;19910;42.652;23.332;2023-12-04T02:34:42;95220.41;;;0.11;76.85
23176;BME280;19910;42.652;23.332;2023-12-04T02:37:11;95203.53;;;0.06;75.95
23176;BME280;19910;42.652;23.332;2023-12-04T02:39:40;95208.94;;;0.11;76.06
23176;BME280;19910;42.652;23.332;2023-12-04T02:42:08;95216.94;;;0.11;74.94
23176;BME280;19910;42.652;23.332;2023-12-04T02:44:35;95217.91;;;0.05;75.15
23176;BME280;19910;42.652;23.332;2023-12-04T02:47:02;95216.78;;;0.00;73.93
23176;BME280;19910;42.652;23.332;2023-12-04T02:49:28;95216.41;;;0.14;74.64
23176;BME280;19910;42.652;23.332;2023-12-04T02:51:55;95220.00;;;0.03;74.74
23176;BME280;19910;42.652;23.332;2023-12-04T02:54:22;95233.03;;;-0.01;74.43
23176;BME280;19910;42.652;23.332;2023-12-04T02:56:51;95222.25;;;0.11;74.08
23176;BME280;19910;42.652;23.332;2023-12-04T02:59:17;95210.31;;;-0.25;74.78
23176;BME280;19910;42.652;23.332;2023-12-04T03:01:44;95212.69;;;-0.29;75.20
23176;BME280;19910;42.652;23.332;2023-12-04T03:04:11;95212.34;;;-0.16;75.25
23176;BME280;19910;42.652;23.332;2023-12-04T03:06:38;95219.41;;;-0.05;75.34
23176;BME280;19910;42.652;23.332;2023-12-04T03:09:05;95215.00;;;-0.16;74.73
23176;BME280;19910;42.652;23.332;2023-12-04T03:11:32;95219.63;;;-0.28;75.28
23176;BME280;19910;42.652;23.332;2023-12-04T03:14:00;95220.59;;;-0.34;74.84
23176;BME280;19910;42.652;23.332;2023-12-04T03:16:27;95214.69;;;-0.36;75.40
23176;BME280;19910;42.652;23.332;2023-12-04T03:18:53;95213.44;;;-0.50;75.31
23176;BME280;19910;42.652;23.332;2023-12-04T03:21:20;95215.75;;;-0.37;75.93
23176;BME280;19910;42.652;23.332;2023-12-04T03:23:47;95219.78;;;-0.34;75.63
23176;BME280;19910;42.652;23.332;2023-12-04T03:26:14;95222.81;;;-0.26;75.14
23176;BME280;19910;42.652;23.332;2023-12-04T03:28:41;95220.44;;;-0.44;74.88
23176;BME280;19910;42.652;23.332;2023-12-04T03:31:09;95225.44;;;-0.31;74.60
23176;BME280;19910;42.652;23.332;2023-12-04T03:33:36;95221.06;;;-0.37;74.93
23176;BME280;19910;42.652;23.332;2023-12-04T03:36:04;95223.25;;;-0.34;75.46
23176;BME280;19910;42.652;23.332;2023-12-04T03:38:31;95225.28;;;-0.41;75.03
23176;BME280;19910;42.652;23.332;2023-12-04T03:40:58;95233.00;;;-0.40;75.33
23176;BME280;19910;42.652;23.332;2023-12-04T03:43:24;95245.78;;;-0.58;76.26
23176;BME280;19910;42.652;23.332;2023-12-04T03:45:51;95237.56;;;-0.74;76.85
23176;BME280;19910;42.652;23.332;2023-12-04T03:48:19;95244.00;;;-0.69;77.74
23176;BME280;19910;42.652;23.332;2023-12-04T03:50:46;95247.22;;;-0.67;77.44
23176;BME280;19910;42.652;23.332;2023-12-04T03:53:13;95240.47;;;-0.58;77.78
23176;BME280;19910;42.652;23.332;2023-12-04T03:55:40;95245.63;;;-0.68;77.97
23176;BME280;19910;42.652;23.332;2023-12-04T03:58:06;95239.06;;;-0.78;77.20
23176;BME280;19910;42.652;23.332;2023-12-04T04:00:34;95240.31;;;-0.85;77.40
23176;BME280;19910;42.652;23.332;2023-12-04T04:03:01;95228.38;;;-0.83;77.13
23176;BME280;19910;42.652;23.332;2023-12-04T04:05:29;95251.91;;;-0.75;77.58
23176;BME280;19910;42.652;23.332;2023-12-04T04:07:56;95238.53;;;-0.96;77.18
23176;BME280;19910;42.652;23.332;2023-12-04T04:10:22;95252.84;;;-0.81;77.55
23176;BME280;19910;42.652;23.332;2023-12-04T04:12:49;95233.22;;;-0.96;77.44
23176;BME280;19910;42.652;23.332;2023-12-04T04:15:16;95230.81;;;0.34;95.66
23176;BME280;19910;42.652;23.332;2023-12-04T04:17:43;95232.28;;;0.04;84.22
23176;BME280;19910;42.652;23.332;2023-12-04T04:20:10;95245.13;;;-0.65;77.22
23176;BME280;19910;42.652;23.332;2023-12-04T04:22:39;95245.28;;;-0.89;76.79
23176;BME280;19910;42.652;23.332;2023-12-04T04:25:07;95253.66;;;-0.97;77.12
23176;BME280;19910;42.652;23.332;2023-12-04T04:27:34;95261.06;;;-0.99;77.53
23176;BME280;19910;42.652;23.332;2023-12-04T04:30:01;95261.66;;;-0.97;77.29
23176;BME280;19910;42.652;23.332;2023-12-04T04:32:28;95255.34;;;-0.91;77.78
23176;BME280;19910;42.652;23.332;2023-12-04T04:34:55;95260.28;;;-0.99;77.04
23176;BME280;19910;42.652;23.332;2023-12-04T04:37:21;95256.22;;;-1.02;77.24
23176;BME280;19910;42.652;23.332;2023-12-04T04:39:49;95264.03;;;-0.95;76.63
23176;BME280;19910;42.652;23.332;2023-12-04T04:42:16;95260.41;;;-1.06;76.52
23176;BME280;19910;42.652;23.332;2023-12-04T04:44:43;95266.88;;;-1.02;75.97
23176;BME280;19910;42.652;23.332;2023-12-04T04:47:10;95259.94;;;-1.03;75.28
23176;BME280;19910;42.652;23.332;2023-12-04T04:49:36;95277.31;;;-1.12;75.41
23176;BME280;19910;42.652;23.332;2023-12-04T04:52:04;95278.53;;;-1.03;74.81
23176;BME280;19910;42.652;23.332;2023-12-04T04:54:31;95283.44;;;-1.12;75.56
23176;BME280;19910;42.652;23.332;2023-12-04T04:56:59;95280.22;;;-1.14;75.15
23176;BME280;19910;42.652;23.332;2023-12-04T04:59:26;95287.09;;;-1.29;75.87
23176;BME280;19910;42.652;23.332;2023-12-04T05:01:55;95284.72;;;-1.14;75.71
23176;BME280;19910;42.652;23.332;2023-12-04T05:04:22;95286.34;;;-1.13;74.47
23176;BME280;19910;42.652;23.332;2023-12-04T05:06:49;95293.28;;;-1.12;74.83
23176;BME280;19910;42.652;23.332;2023-12-04T05:09:16;95284.72;;;-1.14;75.11
23176;BME280;19910;42.652;23.332;2023-12-04T05:11:43;95290.22;;;-1.04;75.43
23176;BME280;19910;42.652;23.332;2023-12-04T05:14:11;95299.22;;;-1.05;75.23
23176;BME280;19910;42.652;23.332;2023-12-04T05:16:37;95294.88;;;-1.11;75.86
23176;BME280;19910;42.652;23.332;2023-12-04T05:19:04;95296.16;;;-1.14;76.49
23176;BME280;19910;42.652;23.332;2023-12-04T05:21:31;95304.94;;;-1.13;75.94
23176;BME280;19910;42.652;23.332;2023-12-04T05:23:58;95300.66;;;-1.14;76.42
23176;BME280;19910;42.652;23.332;2023-12-04T05:26:25;95307.88;;;-0.98;77.25
23176;BME280;19910;42.652;23.332;2023-12-04T05:28:51;95306.63;;;-1.07;76.83
23176;BME280;19910;42.652;23.332;2023-12-04T05:31:20;95304.56;;;-1.05;76.70
23176;BME280;19910;42.652;23.332;2023-12-04T05:33:46;95313.78;;;-1.24;76.67
23176;BME280;19910;42.652;23.332;2023-12-04T05:36:13;95308.34;;;-1.29;77.54
23176;BME280;19910;42.652;23.332;2023-12-04T05:38:40;95316.13;;;-1.39;77.32
23176;BME280;19910;42.652;23.332;2023-12-04T05:41:07;95317.09;;;-1.17;77.52
23176;BME280;19910;42.652;23.332;2023-12-04T05:43:33;95317.91;;;-1.17;76.87
23176;BME280;19910;42.652;23.332;2023-12-04T05:46:00;95313.78;;;-1.24;76.77
23176;BME280;19910;42.652;23.332;2023-12-04T05:48:28;95320.31;;;-1.15;77.73
23176;BME280;19910;42.652;23.332;2023-12-04T05:50:55;95322.22;;;-1.27;77.88
23176;BME280;19910;42.652;23.332;2023-12-04T05:53:22;95320.41;;;-1.38;78.20
23176;BME280;19910;42.652;23.332;2023-12-04T05:55:49;95319.84;;;-1.40;78.96
23176;BME280;19910;42.652;23.332;2023-12-04T05:58:15;95328.94;;;-1.36;79.11
23176;BME280;19910;42.652;23.332;2023-12-04T06:00:42;95328.47;;;-1.33;79.47
23176;BME280;19910;42.652;23.332;2023-12-04T06:03:09;95321.19;;;-1.26;79.39
23176;BME280;19910;42.652;23.332;2023-12-04T06:05:37;95326.56;;;-1.10;79.01
23176;BME280;19910;42.652;23.332;2023-12-04T06:08:04;95327.16;;;-1.19;79.48
23176;BME280;19910;42.652;23.332;2023-12-04T06:10:31;95335.59;;;-1.22;78.90
23176;BME280;19910;42.652;23.332;2023-12-04T06:13:00;95327.63;;;-1.22;79.28
23176;BME280;19910;42.652;23.332;2023-12-04T06:15:27;95336.28;;;-1.15;80.02
23176;BME280;19910;42.652;23.332;2023-12-04T06:17:53;95339.56;;;-0.96;79.90
23176;BME280;19910;42.652;23.332;2023-12-04T06:20:20;95333.06;;;-0.72;79.02
23176;BME280;19910;42.652;23.332;2023-12-04T06:22:49;95333.75;;;-0.48;77.83
23176;BME280;19910;42.652;23.332;2023-12-04T06:25:16;95329.38;;;-0.54;77.90
23176;BME280;19910;42.652;23.332;2023-12-04T06:27:44;95328.50;;;-0.60;77.75
23176;BME280;19910;42.652;23.332;2023-12-04T06:30:11;95336.56;;;-0.55;77.04
23176;BME280;19910;42.652;23.332;2023-12-04T06:32:39;95338.00;;;-0.47;76.43
23176;BME280;19910;42.652;23.332;2023-12-04T06:35:07;95343.47;;;-0.54;75.97
23176;BME280;19910;42.652;23.332;2023-12-04T06:37:34;95351.09;;;-0.29;76.47
23176;BME280;19910;42.652;23.332;2023-12-04T06:40:06;95340.94;;;-0.32;74.87
23176;BME280;19910;42.652;23.332;2023-12-04T06:42:36;95343.50;;;-0.37;75.38
23176;BME280;19910;42.652;23.332;2023-12-04T06:45:04;95348.25;;;-0.22;74.89
23176;BME280;19910;42.652;23.332;2023-12-04T06:47:34;95352.06;;;-0.02;74.69
23176;BME280;19910;42.652;23.332;2023-12-04T06:50:01;95358.09;;;0.11;73.56
23176;BME280;19910;42.652;23.332;2023-12-04T06:52:27;95360.28;;;-0.20;73.72
23176;BME280;19910;42.652;23.332;2023-12-04T06:54:54;95357.84;;;0.12;73.12
23176;BME280;19910;42.652;23.332;2023-12-04T06:57:22;95355.19;;;-0.05;73.73
23176;BME280;19910;42.652;23.332;2023-12-04T06:59:49;95361.72;;;-0.12;74.09
23176;BME280;19910;42.652;23.332;2023-12-04T07:02:16;95367.72;;;-0.05;74.12
23176;BME280;19910;42.652;23.332;2023-12-04T07:04:42;95362.28;;;0.23;74.98
23176;BME280;19910;42.652;23.332;2023-12-04T07:07:09;95366.31;;;0.26;73.58
23176;BME280;19910;42.652;23.332;2023-12-04T07:09:37;95379.88;;;0.08;74.35
23176;BME280;19910;42.652;23.332;2023-12-04T07:12:05;95376.47;;;0.29;73.47
23176;BME280;19910;42.652;23.332;2023-12-04T07:14:35;95375.69;;;0.50;73.87
23176;BME280;19910;42.652;23.332;2023-12-04T07:17:02;95367.97;;;0.32;73.04
23176;BME280;19910;42.652;23.332;2023-12-04T07:19:29;95367.84;;;0.22;73.13
23176;BME280;19910;42.652;23.332;2023-12-04T07:21:56;95361.16;;;0.41;72.72
23176;BME280;19910;42.652;23.332;2023-12-04T07:24:22;95368.31;;;0.19;72.72
23176;BME280;19910;42.652;23.332;2023-12-04T07:26:51;95379.28;;;0.39;73.25
23176;BME280;19910;42.652;23.332;2023-12-04T07:29:18;95385.16;;;0.41;72.46
23176;BME280;19910;42.652;23.332;2023-12-04T07:31:46;95376.38;;;0.41;72.83
23176;BME280;19910;42.652;23.332;2023-12-04T07:34:13;95391.25;;;0.20;72.52
23176;BME280;19910;42.652;23.332;2023-12-04T07:36:40;95382.31;;;-0.08;73.31
23176;BME280;19910;42.652;23.332;2023-12-04T07:39:07;95385.78;;;0.10;72.85
23176;BME280;19910;42.652;23.332;2023-12-04T07:41:34;95381.88;;;0.00;72.53
23176;BME280;19910;42.652;23.332;2023-12-04T07:44:01;95391.41;;;0.30;72.66
23176;BME280;19910;42.652;23.332;2023-12-04T07:46:28;95387.22;;;0.00;72.86
23176;BME280;19910;42.652;23.332;2023-12-04T07:48:56;95382.13;;;0.16;73.10
23176;BME280;19910;42.652;23.332;2023-12-04T07:51:23;95375.97;;;0.32;71.88
23176;BME280;19910;42.652;23.332;2023-12-04T07:53:50;95378.06;;;0.30;71.79
23176;BME280;19910;42.652;23.332;2023-12-04T07:56:17;95380.72;;;0.47;71.16
23176;BME280;19910;42.652;23.332;2023-12-04T07:58:44;95373.81;;;0.67;69.49
23176;BME280;19910;42.652;23.332;2023-12-04T08:01:11;95380.59;;;0.20;70.52
23176;BME280;19910;42.652;23.332;2023-12-04T08:03:38;95388.38;;;0.43;68.86
23176;BME280;19910;42.652;23.332;2023-12-04T08:06:06;95395.91;;;0.46;69.18
23176;BME280;19910;42.652;23.332;2023-12-04T08:08:34;95395.81;;;0.80;69.29
23176;BME280;19910;42.652;23.332;2023-12-04T08:11:00;95394.72;;;0.59;68.73
23176;BME280;19910;42.652;23.332;2023-12-04T08:13:27;95396.84;;;0.57;70.05
23176;BME280;19910;42.652;23.332;2023-12-04T08:15:54;95390.53;;;0.63;69.13
23176;BME280;19910;42.652;23.332;2023-12-04T08:18:22;95396.81;;;0.74;69.27
23176;BME280;19910;42.652;23.332;2023-12-04T08:20:50;95399.25;;;0.58;67.16
23176;BME280;19910;42.652;23.332;2023-12-04T08:23:18;95398.59;;;0.90;67.33
23176;BME280;19910;42.652;23.332;2023-12-04T08:25:45;95397.59;;;0.74;64.74
23176;BME280;19910;42.652;23.332;2023-12-04T08:28:12;95398.41;;;0.75;65.78
23176;BME280;19910;42.652;23.332;2023-12-04T08:30:39;95396.56;;;0.97;64.59
23176;BME280;19910;42.652;23.332;2023-12-04T08:33:06;95393.34;;;0.95;63.97
23176;BME280;19910;42.652;23.332;2023-12-04T08:35:33;95404.38;;;0.82;64.56
23176;BME280;19910;42.652;23.332;2023-12-04T08:38:00;95400.72;;;0.66;64.02
23176;BME280;19910;42.652;23.332;2023-12-04T08:40:29;95401.50;;;1.10;64.33
23176;BME280;19910;42.652;23.332;2023-12-04T08:42:55;95405.28;;;1.14;64.47
23176;BME280;19910;42.652;23.332;2023-12-04T08:45:22;95398.19;;;1.47;64.10
23176;BME280;19910;42.652;23.332;2023-12-04T08:47:49;95398.13;;;1.41;62.75
23176;BME280;19910;42.652;23.332;2023-12-04T08:50:16;95394.97;;;1.71;62.54
23176;BME280;19910;42.652;23.332;2023-12-04T08:52:43;95394.38;;;1.96;61.48
23176;BME280;19910;42.652;23.332;2023-12-04T08:55:10;95386.91;;;1.98;60.36
23176;BME280;19910;42.652;23.332;2023-12-04T08:57:38;95386.66;;;2.37;60.06
23176;BME280;19910;42.652;23.332;2023-12-04T09:00:06;95394.41;;;1.69;59.81
23176;BME280;19910;42.652;23.332;2023-12-04T09:02:33;95378.00;;;1.56;60.17
23176;BME280;19910;42.652;23.332;2023-12-04T09:05:00;95382.84;;;1.59;61.26
23176;BME280;19910;42.652;23.332;2023-12-04T09:07:26;95378.00;;;1.56;60.81
23176;BME280;19910;42.652;23.332;2023-12-04T09:09:53;95379.59;;;1.57;60.73
23176;BME280;19910;42.652;23.332;2023-12-04T09:12:19;95377.66;;;1.79;60.49
23176;BME280;19910;42.652;23.332;2023-12-04T09:14:48;95376.88;;;1.52;61.80
23176;BME280;19910;42.652;23.332;2023-12-04T09:17:15;95364.69;;;1.61;62.15
23176;BME280;19910;42.652;23.332;2023-12-04T09:19:41;95370.69;;;1.78;60.08
23176;BME280;19910;42.652;23.332;2023-12-04T09:22:09;95365.34;;;1.78;60.64
23176;BME280;19910;42.652;23.332;2023-12-04T09:24:38;95356.41;;;2.26;59.97
23176;BME280;19910;42.652;23.332;2023-12-04T09:27:05;95359.69;;;2.85;59.27
23176;BME280;19910;42.652;23.332;2023-12-04T09:29:33;95344.31;;;2.66;59.59
23176;BME280;19910;42.652;23.332;2023-12-04T09:32:01;95349.19;;;2.79;58.50
23176;BME280;19910;42.652;23.332;2023-12-04T09:34:28;95352.16;;;2.88;59.26
23176;BME280;19910;42.652;23.332;2023-12-04T09:36:55;95346.19;;;3.38;56.91
23176;BME280;19910;42.652;23.332;2023-12-04T09:39:21;95349.09;;;3.31;57.71
23176;BME280;19910;42.652;23.332;2023-12-04T09:41:49;95351.97;;;2.99;57.67
23176;BME280;19910;42.652;23.332;2023-12-04T09:44:17;95351.13;;;2.94;57.05
23176;BME280;19910;42.652;23.332;2023-12-04T09:46:45;95349.72;;;3.53;57.11
23176;BME280;19910;42.652;23.332;2023-12-04T09:49:14;95354.31;;;2.91;56.98
23176;BME280;19910;42.652;23.332;2023-12-04T09:51:42;95345.72;;;2.78;58.30
23176;BME280;19910;42.652;23.332;2023-12-04T09:54:09;95351.78;;;3.31;56.69
23176;BME280;19910;42.652;23.332;2023-12-04T09:56:36;95343.06;;;2.83;57.49
23176;BME280;19910;42.652;23.332;2023-12-04T09:59:05;95342.38;;;2.51;57.81
23176;BME280;19910;42.652;23.332;2023-12-04T10:01:33;95331.75;;;2.66;59.66
23176;BME280;19910;42.652;23.332;2023-12-04T10:04:01;95340.34;;;2.26;56.60
23176;BME280;19910;42.652;23.332;2023-12-04T10:06:32;95329.06;;;2.19;56.91
23176;BME280;19910;42.652;23.332;2023-12-04T10:09:00;95330.53;;;2.37;57.85
23176;BME280;19910;42.652;23.332;2023-12-04T10:11:26;95321.72;;;2.99;58.48
23176;BME280;19910;42.652;23.332;2023-12-04T10:13:54;95326.69;;;3.63;57.05
23176;BME280;19910;42.652;23.332;2023-12-04T10:16:34;95323.22;;;3.77;56.11
23176;BME280;19910;42.652;23.332;2023-12-04T10:19:15;95327.16;;;3.29;53.51
23176;BME280;19910;42.652;23.332;2023-12-04T10:21:45;95330.69;;;2.67;55.33
23176;BME280;19910;42.652;23.332;2023-12-04T10:24:13;95324.78;;;2.65;56.24
23176;BME280;19910;42.652;23.332;2023-12-04T10:26:52;95325.50;;;2.45;55.39
23176;BME280;19910;42.652;23.332;2023-12-04T10:29:19;95319.75;;;2.74;55.71
23176;BME280;19910;42.652;23.332;2023-12-04T10:31:47;95320.66;;;3.05;55.64
23176;BME280;19910;42.652;23.332;2023-12-04T10:34:16;95302.00;;;3.45;56.25
23176;BME280;19910;42.652;23.332;2023-12-04T10:36:42;95307.38;;;3.55;54.50
23176;BME280;19910;42.652;23.332;2023-12-04T10:39:12;95302.84;;;3.41;56.07
23176;BME280;19910;42.652;23.332;2023-12-04T10:41:39;95303.34;;;3.28;55.66
23176;BME280;19910;42.652;23.332;2023-12-04T10:44:06;95293.19;;;3.55;55.33
23176;BME280;19910;42.652;23.332;2023-12-04T10:46:35;95294.53;;;3.57;54.56
23176;BME280;19910;42.652;23.332;2023-12-04T10:49:03;95304.38;;;3.21;54.65
23176;BME280;19910;42.652;23.332;2023-12-04T10:51:30;95298.25;;;3.31;53.44
23176;BME280;19910;42.652;23.332;2023-12-04T10:53:57;95299.31;;;3.35;52.86
23176;BME280;19910;42.652;23.332;2023-12-04T10:56:31;95304.69;;;3.35;53.78
23176;BME280;19910;42.652;23.332;2023-12-04T10:59:00;95309.47;;;3.23;55.89
23176;BME280;19910;42.652;23.332;2023-12-04T11:01:29;95302.59;;;3.68;55.05
23176;BME280;19910;42.652;23.332;2023-12-04T11:03:59;95296.66;;;4.11;52.40
23176;BME280;19910;42.652;23.332;2023-12-04T11:06:35;95294.94;;;4.56;53.12
23176;BME280;19910;42.652;23.332;2023-12-04T11:09:05;95286.16;;;4.25;52.56
23176;BME280;19910;42.652;23.332;2023-12-04T11:11:36;95289.66;;;4.31;52.05
23176;BME280;19910;42.652;23.332;2023-12-04T11:14:08;95282.34;;;4.56;51.33
23176;BME280;19910;42.652;23.332;2023-12-04T11:16:43;95281.38;;;4.22;52.50
23176;BME280;19910;42.652;23.332;2023-12-04T11:19:18;95280.06;;;4.09;54.45
23176;BME280;19910;42.652;23.332;2023-12-04T11:21:45;95286.41;;;4.39;52.33
23176;BME280;19910;42.652;23.332;2023-12-04T11:24:12;95273.69;;;4.75;53.57
23176;BME280;19910;42.652;23.332;2023-12-04T11:26:41;95266.19;;;5.21;52.09
23176;BME280;19910;42.652;23.332;2023-12-04T11:29:09;95257.91;;;5.17;51.20
23176;BME280;19910;42.652;23.332;2023-12-04T11:31:36;95264.09;;;5.18;51.84
23176;BME280;19910;42.652;23.332;2023-12-04T11:34:04;95262.00;;;5.05;52.29
23176;BME280;19910;42.652;23.332;2023-12-04T11:36:31;95256.13;;;4.97;50.72
23176;BME280;19910;42.652;23.332;2023-12-04T11:39:00;95253.91;;;5.10;52.32
23176;BME280;19910;42.652;23.332;2023-12-04T11:41:29;95252.41;;;4.14;53.67
23176;BME280;19910;42.652;23.332;2023-12-04T11:43:58;95263.13;;;4.14;54.78
23176;BME280;19910;42.652;23.332;2023-12-04T11:46:26;95247.81;;;4.35;55.20
23176;BME280;19910;42.652;23.332;2023-12-04T11:48:54;95246.25;;;4.13;56.11
23176;BME280;19910;42.652;23.332;2023-12-04T11:51:46;95241.38;;;4.36;55.53
23176;BME280;19910;42.652;23.332;2023-12-04T11:54:17;95226.31;;;4.45;56.13
23176;BME280;19910;42.652;23.332;2023-12-04T11:56:56;95235.38;;;5.08;54.95
23176;BME280;19910;42.652;23.332;2023-12-04T11:59:25;95224.66;;;5.08;53.96
23176;BME280;19910;42.652;23.332;2023-12-04T12:01:54;95228.38;;;5.17;55.13
23176;BME280;19910;42.652;23.332;2023-12-04T12:04:21;95232.75;;;5.03;52.57
23176;BME280;19910;42.652;23.332;2023-12-04T12:06:48;95225.50;;;4.44;53.60
23176;BME280;19910;42.652;23.332;2023-12-04T12:09:18;95229.97;;;4.69;54.01
23176;BME280;19910;42.652;23.332;2023-12-04T12:11:45;95219.81;;;4.61;54.23
23176;BME280;19910;42.652;23.332;2023-12-04T12:14:12;95218.75;;;5.06;54.22
23176;BME280;19910;42.652;23.332;2023-12-04T12:16:41;95210.75;;;5.40;55.01
23176;BME280;19910;42.652;23.332;2023-12-04T12:19:08;95215.00;;;5.46;53.86
23176;BME280;19910;42.652;23.332;2023-12-04T12:21:34;95198.91;;;5.41;54.76
23176;BME280;19910;42.652;23.332;2023-12-04T12:24:03;95201.63;;;5.36;53.17
23176;BME280;19910;42.652;23.332;2023-12-04T12:26:32;95192.34;;;5.57;52.82
23176;BME280;19910;42.652;23.332;2023-12-04T12:28:58;95187.81;;;5.82;52.10
23176;BME280;19910;42.652;23.332;2023-12-04T12:31:25;95192.59;;;5.90;51.45
23176;BME280;19910;42.652;23.332;2023-12-04T12:33:55;95187.97;;;5.95;52.17
23176;BME280;19910;42.652;23.332;2023-12-04T12:36:22;95188.06;;;5.51;50.95
23176;BME280;19910;42.652;23.332;2023-12-04T12:38:48;95183.44;;;4.89;52.36
23176;BME280;19910;42.652;23.332;2023-12-04T12:41:16;95189.00;;;4.97;52.64
23176;BME280;19910;42.652;23.332;2023-12-04T12:43:43;95185.81;;;4.95;52.42
23176;BME280;19910;42.652;23.332;2023-12-04T12:46:10;95182.91;;;4.92;53.77
23176;BME280;19910;42.652;23.332;2023-12-04T12:48:39;95185.53;;;4.97;52.96
23176;BME280;19910;42.652;23.332;2023-12-04T12:51:08;95170.72;;;5.05;53.46
23176;BME280;19910;42.652;23.332;2023-12-04T12:53:36;95182.81;;;5.02;54.16
23176;BME280;19910;42.652;23.332;2023-12-04T12:56:04;95186.75;;;5.15;53.42
23176;BME280;19910;42.652;23.332;2023-12-04T12:58:33;95175.41;;;5.23;55.23
23176;BME280;19910;42.652;23.332;2023-12-04T13:01:00;95175.47;;;5.18;52.28